createdAt,value
2018-06-05T00:00:37.970Z,22.50
2018-06-05T00:03:06.825Z,22.50
2018-06-05T00:05:35.643Z,22.50
2018-06-05T00:08:04.384Z,22.50
2018-06-05T00:10:33.152Z,22.60
2018-06-05T00:13:01.848Z,22.60
2018-06-05T00:15:31.464Z,22.30
2018-06-05T00:18:00.288Z,22.20
2018-06-05T00:20:29.179Z,22.20
2018-06-05T00:22:57.992Z,22.20
2018-06-05T00:25:26.790Z,22.10
2018-06-05T00:27:55.547Z,21.90
2018-06-05T00:30:25.505Z,21.80
2018-06-05T00:32:54.446Z,21.70
2018-06-05T00:35:23.174Z,21.70
2018-06-05T00:37:52.112Z,21.60
2018-06-05T00:40:21.178Z,21.70
2018-06-05T00:42:50.095Z,21.70
2018-06-05T00:45:19.209Z,21.60
2018-06-05T00:47:47.944Z,21.50
2018-06-05T00:50:16.839Z,21.40
2018-06-05T00:52:45.558Z,21.40
2018-06-05T00:55:14.275Z,21.40
2018-06-05T00:57:42.995Z,21.40
2018-06-05T01:00:11.652Z,19.20
2018-06-05T01:02:40.275Z,21.50
2018-06-05T01:05:08.993Z,20.00
2018-06-05T01:07:37.695Z,21.50
2018-06-05T01:10:06.577Z,21.40
2018-06-05T01:12:35.341Z,21.50
2018-06-05T01:15:04.204Z,21.60
2018-06-05T01:17:32.912Z,21.60
2018-06-05T01:20:01.591Z,20.50
2018-06-05T01:22:30.710Z,21.50
2018-06-05T01:25:00.524Z,21.40
2018-06-05T01:27:29.316Z,21.40
2018-06-05T01:29:58.040Z,21.40
2018-06-05T01:32:26.855Z,21.30
2018-06-05T01:34:55.491Z,21.30
2018-06-05T01:37:24.338Z,21.20
2018-06-05T01:39:53.209Z,21.20
2018-06-05T01:42:22.048Z,21.10
2018-06-05T01:44:51.032Z,21.10
2018-06-05T01:47:19.781Z,19.90
2018-06-05T01:49:48.704Z,18.60
2018-06-05T01:52:17.411Z,20.90
2018-06-05T01:54:46.131Z,20.90
2018-06-05T01:57:14.959Z,20.90
2018-06-05T01:59:43.839Z,21.00
2018-06-05T02:02:12.707Z,21.00
2018-06-05T02:04:41.442Z,21.00
2018-06-05T02:07:10.118Z,20.90
2018-06-05T02:09:39.086Z,20.80
2018-06-05T02:12:07.856Z,20.70
2018-06-05T02:14:36.680Z,20.80
2018-06-05T02:17:05.510Z,20.70
2018-06-05T02:19:34.323Z,20.70
2018-06-05T02:22:03.065Z,20.70
2018-06-05T02:24:31.826Z,20.70
2018-06-05T02:27:00.658Z,20.70
2018-06-05T02:29:29.486Z,22.20
2018-06-05T02:31:58.312Z,20.90
2018-06-05T02:34:27.146Z,21.00
2018-06-05T02:36:57.031Z,20.90
2018-06-05T02:39:26.352Z,20.70
2018-06-05T02:41:55.018Z,20.70
2018-06-05T02:44:23.868Z,20.70
2018-06-05T02:46:52.628Z,20.70
2018-06-05T02:51:49.833Z,20.40
2018-06-05T02:54:18.582Z,20.40
2018-06-05T02:56:47.484Z,20.40
2018-06-05T02:59:16.219Z,20.30
2018-06-05T03:01:44.947Z,20.30
2018-06-05T03:04:14.192Z,20.20
2018-06-05T03:06:42.914Z,20.20
2018-06-05T03:09:11.655Z,20.20
2018-06-05T03:11:40.505Z,20.20
2018-06-05T03:14:09.450Z,18.40
2018-06-05T03:16:38.234Z,20.20
2018-06-05T03:19:07.072Z,20.20
2018-06-05T03:21:35.760Z,20.20
2018-06-05T03:24:04.602Z,20.30
2018-06-05T03:26:33.489Z,20.20
2018-06-05T03:29:02.386Z,20.20
2018-06-05T03:31:31.207Z,20.30
2018-06-05T03:33:59.935Z,20.30
2018-06-05T03:38:57.022Z,20.30
2018-06-05T03:43:54.266Z,20.20
2018-06-05T03:46:23.064Z,20.10
2018-06-05T03:48:52.592Z,20.20
2018-06-05T03:51:21.388Z,20.20
2018-06-05T03:53:50.127Z,20.20
2018-06-05T03:56:19.069Z,20.30
2018-06-05T03:58:47.912Z,20.30
2018-06-05T04:01:16.711Z,20.30
2018-06-05T04:03:45.644Z,20.20
2018-06-05T04:06:14.424Z,20.30
2018-06-05T04:11:11.709Z,20.20
2018-06-05T04:13:40.523Z,21.50
2018-06-05T04:16:09.848Z,20.20
2018-06-05T04:18:38.857Z,20.20
2018-06-05T04:21:07.542Z,20.30
2018-06-05T04:23:36.337Z,20.30
2018-06-05T04:26:05.172Z,20.40
2018-06-05T04:28:33.979Z,20.40
2018-06-05T04:31:02.872Z,20.40
2018-06-05T04:33:31.593Z,20.50
2018-06-05T04:36:00.504Z,20.60
2018-06-05T04:38:29.343Z,20.60
2018-06-05T04:40:58.229Z,20.70
2018-06-05T04:43:27.234Z,20.70
2018-06-05T04:45:56.022Z,20.70
2018-06-05T04:48:24.933Z,20.60
2018-06-05T04:50:53.684Z,20.60
2018-06-05T04:53:22.524Z,20.60
2018-06-05T04:55:51.382Z,20.60
2018-06-05T04:58:20.236Z,20.70
2018-06-05T05:00:50.145Z,20.80
2018-06-05T05:03:19.258Z,20.80
2018-06-05T05:05:47.936Z,20.80
2018-06-05T05:08:16.916Z,20.80
2018-06-05T05:10:45.881Z,20.80
2018-06-05T05:13:15.032Z,20.20
2018-06-05T05:15:44.646Z,20.80
2018-06-05T05:18:13.779Z,20.90
2018-06-05T05:20:42.604Z,20.90
2018-06-05T05:23:11.324Z,21.00
2018-06-05T05:25:40.067Z,21.10
2018-06-05T05:28:08.909Z,21.10
2018-06-05T05:30:37.833Z,21.10
2018-06-05T05:33:08.298Z,21.10
2018-06-05T05:35:37.043Z,21.20
2018-06-05T05:38:05.816Z,21.20
2018-06-05T05:40:34.473Z,21.30
2018-06-05T05:43:03.385Z,21.30
2018-06-05T05:45:32.464Z,21.30
2018-06-05T05:50:30.560Z,21.30
2018-06-05T05:52:59.262Z,21.20
2018-06-05T05:57:56.459Z,21.50
2018-06-05T06:00:25.395Z,21.60
2018-06-05T06:02:54.395Z,21.70
2018-06-05T06:05:23.239Z,21.60
2018-06-05T06:07:52.275Z,21.60
2018-06-05T06:10:21.076Z,21.60
2018-06-05T06:12:52.969Z,21.60
2018-06-05T06:15:22.472Z,21.60
2018-06-05T06:17:51.991Z,23.40
2018-06-05T06:20:21.941Z,21.70
2018-06-05T06:22:51.761Z,21.90
2018-06-05T06:25:21.996Z,22.20
2018-06-05T06:27:51.231Z,22.10
2018-06-05T06:30:28.241Z,22.20
2018-06-05T06:33:08.039Z,22.20
2018-06-05T06:35:37.507Z,22.20
2018-06-05T06:38:06.335Z,22.40
2018-06-05T06:40:35.058Z,22.60
2018-06-05T06:43:04.704Z,22.70
2018-06-05T06:45:33.468Z,22.80
2018-06-05T06:48:02.256Z,23.00
2018-06-05T06:50:31.394Z,23.00
2018-06-05T06:53:00.588Z,24.60
2018-06-05T06:55:29.643Z,23.10
2018-06-05T06:57:58.445Z,23.10
2018-06-05T07:00:28.142Z,23.10
2018-06-05T07:03:00.403Z,23.20
2018-06-05T07:05:30.076Z,23.30
2018-06-05T07:07:59.734Z,23.40
2018-06-05T07:10:28.664Z,23.40
2018-06-05T07:12:57.921Z,23.50
2018-06-05T07:15:27.210Z,23.60
2018-06-05T07:17:56.063Z,23.60
2018-06-05T07:20:25.301Z,23.60
2018-06-05T07:22:54.397Z,23.60
2018-06-05T07:25:23.206Z,23.70
2018-06-05T07:27:52.139Z,23.70
2018-06-05T07:30:22.171Z,23.80
2018-06-05T07:32:50.955Z,23.90
2018-06-05T07:35:19.862Z,24.00
2018-06-05T07:37:48.582Z,24.00
2018-06-05T07:40:17.596Z,24.00
2018-06-05T07:42:46.294Z,24.00
2018-06-05T07:45:16.296Z,24.00
2018-06-05T07:47:45.496Z,24.10
2018-06-05T07:50:14.675Z,24.10
2018-06-05T07:52:43.511Z,24.30
2018-06-05T07:55:12.219Z,24.70
2018-06-05T07:57:41.634Z,25.00
2018-06-05T08:00:10.581Z,25.00
2018-06-05T08:02:40.461Z,25.20
2018-06-05T08:05:12.285Z,25.40
2018-06-05T08:07:41.903Z,26.00
2018-06-05T08:10:11.598Z,26.50
2018-06-05T08:12:40.382Z,25.50
2018-06-05T08:15:10.231Z,26.10
2018-06-05T08:17:47.554Z,25.60
2018-06-05T08:20:19.951Z,25.70
2018-06-05T08:22:53.221Z,24.70
2018-06-05T08:25:22.186Z,25.70
2018-06-05T08:27:50.892Z,25.80
2018-06-05T08:30:19.960Z,26.00
2018-06-05T08:35:17.307Z,25.90
2018-06-05T08:40:14.902Z,26.40
2018-06-05T08:42:43.686Z,26.50
2018-06-05T08:45:12.464Z,25.60
2018-06-05T08:47:41.534Z,26.60
2018-06-05T08:50:10.560Z,26.70
2018-06-05T08:55:08.472Z,27.00
2018-06-05T08:57:37.512Z,27.10
2018-06-05T09:00:06.437Z,27.30
2018-06-05T09:02:35.282Z,27.50
2018-06-05T09:05:04.162Z,27.50
2018-06-05T09:07:32.763Z,27.60
2018-06-05T09:10:02.205Z,27.50
2018-06-05T09:12:30.901Z,26.60
2018-06-05T09:14:59.613Z,27.50
2018-06-05T09:19:56.711Z,27.40
2018-06-05T09:22:25.548Z,27.30
2018-06-05T09:24:54.172Z,27.40
2018-06-05T09:27:22.918Z,27.50
2018-06-05T09:29:51.609Z,28.80
2018-06-05T09:32:20.590Z,27.90
2018-06-05T09:34:49.238Z,27.90
2018-06-05T09:37:19.045Z,27.30
2018-06-05T09:39:48.127Z,28.10
2018-06-05T09:42:17.075Z,28.00
2018-06-05T09:44:46.260Z,27.90
2018-06-05T09:47:14.993Z,27.90
2018-06-05T09:49:43.788Z,27.70
2018-06-05T09:52:12.657Z,27.50
2018-06-05T09:54:41.687Z,27.30
2018-06-05T09:57:10.472Z,27.20
2018-06-05T09:59:39.246Z,27.20
2018-06-05T10:02:40.225Z,27.10
2018-06-05T10:05:10.006Z,26.90
2018-06-05T10:07:42.509Z,26.90
2018-06-05T10:10:13.412Z,26.70
2018-06-05T10:12:42.110Z,26.70
2018-06-05T10:15:11.055Z,26.70
2018-06-05T10:17:40.169Z,26.70
2018-06-05T10:20:08.922Z,25.60
2018-06-05T10:22:40.145Z,26.90
2018-06-05T10:25:08.942Z,27.50
2018-06-05T10:28:11.271Z,27.80
2018-06-05T10:30:53.347Z,28.10
2018-06-05T10:33:45.293Z,28.10
2018-06-05T10:36:23.573Z,28.00
2018-06-05T10:38:52.656Z,27.30
2018-06-05T10:41:22.292Z,29.20
2018-06-05T10:43:52.593Z,29.30
2018-06-05T10:46:24.278Z,29.70
2018-06-05T10:48:53.754Z,29.70
2018-06-05T10:51:23.038Z,29.70
2018-06-05T10:53:53.695Z,29.00
2018-06-05T10:56:23.526Z,29.90
2018-06-05T10:58:52.489Z,30.40
2018-06-05T11:01:21.239Z,31.40
2018-06-05T11:03:50.693Z,29.50
2018-06-05T11:06:19.760Z,28.10
2018-06-05T11:08:48.578Z,27.10
2018-06-05T11:11:17.416Z,27.00
2018-06-05T11:13:46.329Z,26.70
2018-06-05T11:16:15.013Z,26.10
2018-06-05T11:18:43.722Z,25.80
2018-06-05T11:21:18.193Z,24.70
2018-06-05T11:23:47.194Z,24.20
2018-06-05T11:26:16.697Z,24.20
2018-06-05T11:28:45.585Z,23.70
2018-06-05T11:31:14.542Z,23.30
2018-06-05T11:33:43.534Z,23.30
2018-06-05T11:36:12.273Z,23.20
2018-06-05T11:38:41.215Z,22.60
2018-06-05T11:41:09.969Z,22.10
2018-06-05T11:43:39.324Z,22.00
2018-06-05T11:46:08.031Z,23.00
2018-06-05T11:48:37.087Z,21.30
2018-06-05T11:51:16.444Z,21.20
2018-06-05T11:53:45.220Z,19.50
2018-06-05T11:56:14.455Z,20.90
2018-06-05T11:58:43.550Z,21.00
2018-06-05T12:01:12.725Z,19.80
2018-06-05T12:03:42.280Z,21.40
2018-06-05T12:06:10.888Z,21.70
2018-06-05T12:08:39.844Z,21.90
2018-06-05T12:11:08.718Z,22.00
2018-06-05T12:13:38.228Z,22.10
2018-06-05T12:16:07.217Z,22.10
2018-06-05T12:18:36.255Z,22.30
2018-06-05T12:21:07.612Z,22.40
2018-06-05T12:23:36.596Z,22.60
2018-06-05T12:26:05.289Z,22.70
2018-06-05T12:28:34.747Z,22.50
2018-06-05T12:31:04.171Z,22.00
2018-06-05T12:33:32.934Z,23.20
2018-06-05T12:36:02.948Z,23.40
2018-06-05T12:38:32.331Z,25.20
2018-06-05T12:41:01.781Z,23.60
2018-06-05T12:43:50.597Z,23.70
2018-06-05T12:46:27.673Z,23.90
2018-06-05T12:49:05.636Z,23.90
2018-06-05T12:51:34.442Z,24.00
2018-06-05T12:54:03.550Z,24.20
2018-06-05T12:56:32.657Z,24.30
2018-06-05T13:02:06.518Z,24.30
2018-06-05T13:04:36.735Z,24.20
2018-06-05T13:07:06.247Z,24.30
2018-06-05T13:09:35.988Z,24.30
2018-06-05T13:12:05.058Z,24.20
2018-06-05T13:14:34.254Z,24.20
2018-06-05T13:17:03.395Z,24.10
2018-06-05T13:19:34.938Z,24.10
2018-06-05T13:22:05.094Z,24.00
2018-06-05T13:24:34.756Z,24.00
2018-06-05T13:27:05.639Z,24.10
2018-06-05T13:29:34.841Z,24.30
2018-06-05T13:32:04.270Z,24.40
2018-06-05T13:34:33.049Z,24.40
2018-06-05T13:37:07.344Z,24.50
2018-06-05T13:39:43.972Z,24.60
2018-06-05T13:42:13.666Z,24.60
2018-06-05T13:44:43.154Z,24.80
2018-06-05T13:47:19.208Z,24.90
2018-06-05T13:49:49.200Z,25.00
2018-06-05T13:52:18.276Z,25.50
2018-06-05T13:54:47.339Z,27.00
2018-06-05T13:57:16.425Z,29.10
2018-06-05T13:59:45.478Z,30.20
2018-06-05T14:02:17.869Z,31.20
2018-06-05T14:04:47.770Z,31.90
2018-06-05T14:07:16.545Z,32.50
2018-06-05T14:09:45.643Z,33.50
2018-06-05T14:12:15.280Z,33.60
2018-06-05T14:14:44.132Z,33.90
2018-06-05T14:17:12.982Z,34.20
2018-06-05T14:19:41.893Z,34.90
2018-06-05T14:22:10.886Z,35.30
2018-06-05T14:24:40.242Z,35.70
2018-06-05T14:27:09.093Z,35.80
2018-06-05T14:29:37.986Z,36.00
2018-06-05T14:32:06.860Z,35.80
2018-06-05T14:34:35.835Z,35.60
2018-06-05T14:37:04.857Z,35.70
2018-06-05T14:41:02.932Z,35.90
2018-06-05T14:43:32.030Z,36.00
2018-06-05T14:46:08.258Z,35.80
2018-06-05T14:48:44.077Z,35.40
2018-06-05T14:51:13.356Z,35.30
2018-06-05T14:53:42.490Z,35.20
2018-06-05T14:56:12.223Z,35.10
2018-06-05T14:58:49.494Z,35.50
2018-06-05T15:01:25.268Z,35.90
2018-06-05T15:04:00.819Z,36.10
2018-06-05T15:06:29.899Z,35.80
2018-06-05T15:08:58.951Z,35.40
2018-06-05T15:11:27.706Z,34.90
2018-06-05T15:13:56.539Z,35.10
2018-06-05T15:16:25.411Z,35.40
2018-06-05T15:18:54.435Z,35.20
2018-06-05T15:21:23.519Z,35.10
2018-06-05T15:23:52.473Z,32.90
2018-06-05T15:26:21.356Z,32.30
2018-06-05T15:28:50.898Z,32.00
2018-06-05T15:31:19.916Z,31.50
2018-06-05T15:33:48.840Z,31.20
2018-06-05T15:36:17.782Z,30.80
2018-06-05T15:38:47.579Z,30.30
2018-06-05T15:41:16.641Z,29.50
2018-06-05T15:43:46.158Z,29.40
2018-06-05T15:46:15.099Z,29.60
2018-06-05T15:48:43.936Z,29.70
2018-06-05T15:51:17.681Z,29.80
2018-06-05T15:53:46.652Z,29.60
2018-06-05T15:56:15.489Z,29.50
2018-06-05T15:58:44.274Z,29.40
2018-06-05T16:01:13.201Z,29.20
2018-06-05T16:03:42.065Z,26.70
2018-06-05T16:06:10.850Z,28.70
2018-06-05T16:08:39.662Z,28.40
2018-06-05T16:11:08.724Z,28.20
2018-06-05T16:13:37.544Z,28.10
2018-06-05T16:16:07.014Z,28.10
2018-06-05T16:18:35.986Z,28.00
2018-06-05T16:21:05.504Z,28.00
2018-06-05T16:23:34.915Z,27.90
2018-06-05T16:26:03.897Z,27.80
2018-06-05T16:28:32.949Z,27.70
2018-06-05T16:31:01.819Z,27.50
2018-06-05T16:33:30.530Z,27.40
2018-06-05T16:35:59.483Z,27.40
2018-06-05T16:38:28.209Z,25.60
2018-06-05T16:40:57.928Z,27.20
2018-06-05T16:43:26.766Z,27.20
2018-06-05T16:45:55.697Z,26.10
2018-06-05T16:48:25.428Z,27.00
2018-06-05T16:50:54.197Z,27.00
2018-06-05T16:53:23.042Z,26.90
2018-06-05T16:55:51.954Z,26.90
2018-06-05T16:58:21.691Z,26.80
2018-06-05T17:00:50.502Z,26.70
2018-06-05T17:03:19.260Z,26.70
2018-06-05T17:05:48.114Z,26.70
2018-06-05T17:08:21.971Z,26.60
2018-06-05T17:10:50.891Z,26.70
2018-06-05T17:13:19.718Z,26.50
2018-06-05T17:15:48.467Z,26.50
2018-06-05T17:18:17.259Z,26.60
2018-06-05T17:20:46.455Z,26.60
2018-06-05T17:23:15.254Z,26.60
2018-06-05T17:25:44.541Z,26.50
2018-06-05T17:28:13.420Z,26.50
2018-06-05T17:30:43.559Z,26.60
2018-06-05T17:33:12.678Z,26.50
2018-06-05T17:35:41.457Z,26.60
2018-06-05T17:38:10.287Z,26.60
2018-06-05T17:40:39.044Z,26.50
2018-06-05T17:43:07.973Z,26.50
2018-06-05T17:45:36.886Z,26.40
2018-06-05T17:48:05.961Z,26.40
2018-06-05T17:50:34.986Z,26.20
2018-06-05T17:53:04.087Z,26.20
2018-06-05T17:55:32.959Z,26.20
2018-06-05T17:58:02.098Z,26.10
2018-06-05T18:00:32.102Z,27.30
2018-06-05T18:03:00.964Z,26.10
2018-06-05T18:05:29.709Z,26.00
2018-06-05T18:07:58.515Z,25.90
2018-06-05T18:10:27.188Z,25.80
2018-06-05T18:12:56.029Z,25.70
2018-06-05T18:15:24.973Z,25.60
2018-06-05T18:17:53.943Z,25.50
2018-06-05T18:20:22.870Z,25.90
2018-06-05T18:22:51.623Z,25.50
2018-06-05T18:25:20.462Z,25.50
2018-06-05T18:27:49.380Z,25.50
2018-06-05T18:30:18.481Z,25.50
2018-06-05T18:32:47.326Z,26.80
2018-06-05T18:35:16.039Z,25.30
2018-06-05T18:37:44.737Z,25.30
2018-06-05T18:40:13.454Z,25.30
2018-06-05T18:42:42.297Z,25.30
2018-06-05T18:45:11.040Z,25.30
2018-06-05T18:47:39.790Z,25.40
2018-06-05T18:50:08.744Z,25.40
2018-06-05T18:52:37.553Z,25.30
2018-06-05T18:55:06.847Z,25.20
2018-06-05T18:57:35.923Z,25.10
2018-06-05T19:00:05.347Z,25.00
2018-06-05T19:02:34.311Z,25.00
2018-06-05T19:05:03.009Z,24.90
2018-06-05T19:07:32.018Z,24.80
2018-06-05T19:10:01.718Z,24.80
2018-06-05T19:12:30.646Z,24.80
2018-06-05T19:14:59.624Z,24.30
2018-06-05T19:17:28.353Z,24.70
2018-06-05T19:21:26.476Z,24.70
2018-06-05T19:24:02.286Z,24.70
2018-06-05T19:26:37.407Z,22.80
2018-06-05T19:29:07.975Z,24.60
2018-06-05T19:31:36.841Z,24.60
2018-06-05T19:34:05.565Z,24.10
2018-06-05T19:36:34.383Z,24.60
2018-06-05T19:39:03.318Z,24.60
2018-06-05T19:41:32.281Z,24.50
2018-06-05T19:44:01.343Z,24.50
2018-06-05T19:46:30.685Z,24.50
2018-06-05T19:48:59.464Z,24.50
2018-06-05T19:51:34.581Z,24.50
2018-06-05T19:54:10.477Z,24.50
2018-06-05T19:56:39.641Z,24.40
2018-06-05T19:59:08.407Z,24.00
2018-06-05T20:01:37.421Z,23.80
2018-06-05T20:04:07.150Z,23.70
2018-06-05T20:06:36.014Z,23.50
2018-06-05T20:09:07.182Z,23.30
2018-06-05T20:11:35.930Z,23.20
2018-06-05T20:14:04.784Z,23.20
2018-06-05T20:16:34.580Z,23.10
2018-06-05T20:19:03.412Z,23.10
2018-06-05T20:21:32.123Z,23.10
2018-06-05T20:24:01.260Z,23.00
2018-06-05T20:26:30.491Z,22.80
2018-06-05T20:29:00.143Z,22.60
2018-06-05T20:31:29.635Z,23.20
2018-06-05T20:33:58.627Z,22.30
2018-06-05T20:36:27.375Z,22.20
2018-06-05T20:38:56.102Z,22.00
2018-06-05T20:41:25.423Z,21.80
2018-06-05T20:43:54.851Z,21.70
2018-06-05T20:46:23.559Z,21.60
2018-06-05T20:48:53.284Z,21.50
2018-06-05T20:51:21.990Z,21.50
2018-06-05T20:53:50.716Z,20.90
2018-06-05T20:56:19.824Z,21.40
2018-06-05T20:58:48.636Z,21.30
2018-06-05T21:01:17.579Z,21.20
2018-06-05T21:03:46.328Z,21.10
2018-06-05T21:06:15.225Z,21.00
2018-06-05T21:08:43.922Z,21.00
2018-06-05T21:11:12.771Z,21.00
2018-06-05T21:13:41.459Z,21.00
2018-06-05T21:16:10.762Z,21.10
2018-06-05T21:18:39.524Z,21.20
2018-06-05T21:21:08.976Z,21.30
2018-06-05T21:23:38.476Z,21.30
2018-06-05T21:26:07.720Z,21.40
2018-06-05T21:28:36.968Z,22.30
2018-06-05T21:31:05.926Z,21.40
2018-06-05T21:33:34.864Z,21.40
2018-06-05T21:36:03.675Z,21.30
2018-06-05T21:38:32.512Z,21.20
2018-06-05T21:41:01.247Z,21.20
2018-06-05T21:43:30.090Z,21.30
2018-06-05T21:45:58.878Z,21.40
2018-06-05T21:48:27.873Z,21.40
2018-06-05T21:50:56.825Z,21.20
2018-06-05T21:53:25.624Z,21.00
2018-06-05T21:55:54.692Z,20.90
2018-06-05T21:58:23.397Z,20.90
2018-06-05T22:00:52.235Z,20.90
2018-06-05T22:03:21.786Z,20.80
2018-06-05T22:05:50.463Z,20.80
2018-06-05T22:08:19.226Z,20.80
2018-06-05T22:10:48.062Z,20.90
2018-06-05T22:13:16.867Z,20.90
2018-06-05T22:15:45.609Z,21.00
2018-06-05T22:18:14.274Z,20.90
2018-06-05T22:20:43.163Z,20.90
2018-06-05T22:23:12.116Z,20.80
2018-06-05T22:25:40.863Z,22.40
2018-06-05T22:28:09.746Z,20.70
2018-06-05T22:30:38.620Z,20.70
2018-06-05T22:33:07.327Z,20.70
2018-06-05T22:35:36.173Z,20.60
2018-06-05T22:38:05.736Z,20.60
2018-06-05T22:40:34.541Z,20.60
2018-06-05T22:43:03.193Z,20.70
2018-06-05T22:45:32.141Z,19.90
2018-06-05T22:48:00.924Z,20.80
2018-06-05T22:50:30.386Z,20.80
2018-06-05T22:52:59.224Z,21.20
2018-06-05T22:55:28.620Z,20.80
2018-06-05T22:57:57.296Z,20.80
2018-06-05T23:00:32.323Z,20.80
2018-06-05T23:03:01.290Z,20.90
2018-06-05T23:05:30.161Z,21.00
2018-06-05T23:07:59.034Z,21.00
2018-06-05T23:10:27.908Z,21.10
2018-06-05T23:12:56.695Z,21.20
2018-06-05T23:15:26.102Z,21.10
2018-06-05T23:17:54.961Z,21.10
2018-06-05T23:20:23.614Z,21.00
2018-06-05T23:22:52.234Z,21.00
2018-06-05T23:25:21.030Z,21.00
2018-06-05T23:27:49.861Z,20.90
2018-06-05T23:30:18.688Z,20.90
2018-06-05T23:32:47.384Z,20.90
2018-06-05T23:35:16.079Z,20.00
2018-06-05T23:37:44.774Z,20.60
2018-06-05T23:40:13.485Z,20.40
2018-06-05T23:42:42.367Z,20.70
2018-06-05T23:45:11.037Z,20.80
2018-06-05T23:47:39.760Z,20.90
2018-06-05T23:50:08.624Z,20.90
2018-06-05T23:52:37.371Z,21.00
2018-06-05T23:55:06.395Z,21.00
2018-06-05T23:57:35.072Z,21.00
